sensor_id;sensor_type;location;lat;lon;timestamp;pressure;altitude;pressure_sealevel;temperature;humidity
70314;BME280;57725;47.526;18.986;2023-01-31T00:01:24;99392.09;;;3.20;94.92
70314;BME280;57725;47.526;18.986;2023-01-31T00:04:01;99380.91;;;3.19;95.24
70314;BME280;57725;47.526;18.986;2023-01-31T00:08:56;99378.34;;;3.19;94.93
70314;BME280;57725;47.526;18.986;2023-01-31T00:11:24;99380.03;;;3.20;94.87
70314;BME280;57725;47.526;18.986;2023-01-31T00:13:54;99384.34;;;3.20;94.93
70314;BME280;57725;47.526;18.986;2023-01-31T00:16:22;99385.22;;;3.19;95.02
70314;BME280;57725;47.526;18.986;2023-01-31T00:18:48;99401.63;;;3.16;95.42
70314;BME280;57725;47.526;18.986;2023-01-31T00:21:23;99396.44;;;3.18;95.36
70314;BME280;57725;47.526;18.986;2023-01-31T00:23:53;99399.88;;;3.18;95.45
70314;BME280;57725;47.526;18.986;2023-01-31T00:26:22;99387.00;;;3.17;95.21
70314;BME280;57725;47.526;18.986;2023-01-31T00:28:50;99408.47;;;3.19;95.31
70314;BME280;57725;47.526;18.986;2023-01-31T00:31:16;99396.41;;;3.19;95.11
70314;BME280;57725;47.526;18.986;2023-01-31T00:33:43;99399.00;;;3.19;94.91
70314;BME280;57725;47.526;18.986;2023-01-31T00:36:14;99389.56;;;3.17;95.46
70314;BME280;57725;47.526;18.986;2023-01-31T00:38:42;99397.28;;;3.20;95.11
70314;BME280;57725;47.526;18.986;2023-01-31T00:41:12;99392.09;;;3.20;95.11
70314;BME280;57725;47.526;18.986;2023-01-31T00:43:40;99382.66;;;3.19;95.15
70314;BME280;57725;47.526;18.986;2023-01-31T00:46:08;99392.97;;;3.19;95.14
70314;BME280;57725;47.526;18.986;2023-01-31T00:48:34;99385.22;;;3.20;95.24
70314;BME280;57725;47.526;18.986;2023-01-31T00:51:02;99392.09;;;3.20;95.45
70314;BME280;57725;47.526;18.986;2023-01-31T00:53:30;99411.03;;;3.20;95.24
70314;BME280;57725;47.526;18.986;2023-01-31T00:56:08;99395.59;;;3.17;95.35
70314;BME280;57725;47.526;18.986;2023-01-31T00:58:34;99381.78;;;3.20;95.08
70314;BME280;57725;47.526;18.986;2023-01-31T01:01:17;99370.56;;;3.21;95.47
70314;BME280;57725;47.526;18.986;2023-01-31T01:03:45;99381.81;;;3.17;95.22
70314;BME280;57725;47.526;18.986;2023-01-31T01:06:13;99381.81;;;3.18;95.36
70314;BME280;57725;47.526;18.986;2023-01-31T01:08:40;99393.81;;;3.21;95.27
70314;BME280;57725;47.526;18.986;2023-01-31T01:11:14;99398.13;;;3.20;95.39
70314;BME280;57725;47.526;18.986;2023-01-31T01:13:46;99391.22;;;3.21;95.06
70314;BME280;57725;47.526;18.986;2023-01-31T01:16:17;99384.34;;;3.20;95.28
70314;BME280;57725;47.526;18.986;2023-01-31T01:18:46;99401.56;;;3.21;95.18
70314;BME280;57725;47.526;18.986;2023-01-31T01:21:19;99400.72;;;3.20;94.95
70314;BME280;57725;47.526;18.986;2023-01-31T01:23:49;99401.63;;;3.16;95.11
70314;BME280;57725;47.526;18.986;2023-01-31T01:26:20;99405.88;;;3.20;95.37
70314;BME280;57725;47.526;18.986;2023-01-31T01:28:47;99415.34;;;3.20;95.02
70314;BME280;57725;47.526;18.986;2023-01-31T01:31:17;99424.84;;;3.19;95.30
70314;BME280;57725;47.526;18.986;2023-01-31T01:33:44;99424.81;;;3.21;95.08
70314;BME280;57725;47.526;18.986;2023-01-31T01:36:14;99437.72;;;3.21;94.99
70314;BME280;57725;47.526;18.986;2023-01-31T01:38:42;99435.13;;;3.21;95.06
70314;BME280;57725;47.526;18.986;2023-01-31T01:41:08;99450.63;;;3.21;94.88
70314;BME280;57725;47.526;18.986;2023-01-31T01:43:41;99453.22;;;3.21;95.35
70314;BME280;57725;47.526;18.986;2023-01-31T01:46:12;99448.06;;;3.21;95.25
70314;BME280;57725;47.526;18.986;2023-01-31T01:48:40;99450.63;;;3.21;95.04
70314;BME280;57725;47.526;18.986;2023-01-31T01:51:07;99439.50;;;3.17;95.21
70314;BME280;57725;47.526;18.986;2023-01-31T01:53:41;99449.81;;;3.19;95.20
70314;BME280;57725;47.526;18.986;2023-01-31T01:56:15;99448.91;;;3.21;95.31
70314;BME280;57725;47.526;18.986;2023-01-31T01:58:56;99448.91;;;3.21;94.97
70314;BME280;57725;47.526;18.986;2023-01-31T02:01:32;99453.22;;;3.21;95.34
70314;BME280;57725;47.526;18.986;2023-01-31T02:04:02;99450.66;;;3.19;95.32
70314;BME280;57725;47.526;18.986;2023-01-31T02:06:29;99450.66;;;3.19;95.17
70314;BME280;57725;47.526;18.986;2023-01-31T02:08:54;99452.34;;;3.22;95.29
70314;BME280;57725;47.526;18.986;2023-01-31T02:11:23;99457.50;;;3.22;95.43
70314;BME280;57725;47.526;18.986;2023-01-31T02:13:58;99458.41;;;3.19;95.54
70314;BME280;57725;47.526;18.986;2023-01-31T02:16:25;99480.75;;;3.22;95.11
70314;BME280;57725;47.526;18.986;2023-01-31T02:18:50;99472.16;;;3.21;95.18
70314;BME280;57725;47.526;18.986;2023-01-31T02:41:34;99509.19;;;3.22;94.99
70314;BME280;57725;47.526;18.986;2023-01-31T02:44:30;99510.91;;;3.21;95.20
70314;BME280;57725;47.526;18.986;2023-01-31T02:53:14;99514.38;;;3.20;95.81
70314;BME280;57725;47.526;18.986;2023-01-31T02:56:04;99509.22;;;3.20;95.23
70314;BME280;57725;47.526;18.986;2023-01-31T03:01:35;99523.81;;;3.21;95.15
70314;BME280;57725;47.526;18.986;2023-01-31T03:04:07;99510.09;;;3.18;95.24
70314;BME280;57725;47.526;18.986;2023-01-31T03:09:21;99529.88;;;3.20;95.01
70314;BME280;57725;47.526;18.986;2023-01-31T03:12:23;99538.44;;;3.22;95.18
70314;BME280;57725;47.526;18.986;2023-01-31T03:21:05;99549.66;;;3.21;95.32
70314;BME280;57725;47.526;18.986;2023-01-31T03:23:34;99552.25;;;3.21;95.16
70314;BME280;57725;47.526;18.986;2023-01-31T03:26:04;99566.06;;;3.19;95.18
70314;BME280;57725;47.526;18.986;2023-01-31T03:28:33;99566.00;;;3.22;95.11
70314;BME280;57725;47.526;18.986;2023-01-31T03:31:13;99575.50;;;3.21;94.76
70314;BME280;57725;47.526;18.986;2023-01-31T03:33:47;99562.56;;;3.21;94.94
70314;BME280;57725;47.526;18.986;2023-01-31T03:36:32;99565.16;;;3.21;95.52
70314;BME280;57725;47.526;18.986;2023-01-31T03:47:22;99585.84;;;3.20;94.87
70314;BME280;57725;47.526;18.986;2023-01-31T03:49:53;99587.56;;;3.21;95.39
70314;BME280;57725;47.526;18.986;2023-01-31T03:52:30;99597.03;;;3.20;95.08
70314;BME280;57725;47.526;18.986;2023-01-31T03:55:04;99595.31;;;3.21;95.04
70314;BME280;57725;47.526;18.986;2023-01-31T03:57:37;99599.63;;;3.20;95.16
70314;BME280;57725;47.526;18.986;2023-01-31T04:00:06;99598.78;;;3.18;95.58
70314;BME280;57725;47.526;18.986;2023-01-31T04:02:35;99614.25;;;3.21;95.03
70314;BME280;57725;47.526;18.986;2023-01-31T04:05:09;99609.97;;;3.19;95.28
70314;BME280;57725;47.526;18.986;2023-01-31T04:07:35;99622.00;;;3.21;94.96
70314;BME280;57725;47.526;18.986;2023-01-31T04:10:10;99624.66;;;3.15;95.08
70314;BME280;57725;47.526;18.986;2023-01-31T04:12:39;99632.31;;;3.21;95.07
70314;BME280;57725;47.526;18.986;2023-01-31T04:15:07;99630.63;;;3.20;95.61
70314;BME280;57725;47.526;18.986;2023-01-31T04:17:33;99628.09;;;3.17;94.96
70314;BME280;57725;47.526;18.986;2023-01-31T04:20:01;99623.72;;;3.21;95.33
70314;BME280;57725;47.526;18.986;2023-01-31T04:22:26;99628.88;;;3.21;95.49
70314;BME280;57725;47.526;18.986;2023-01-31T04:24:52;99636.63;;;3.21;94.99
70314;BME280;57725;47.526;18.986;2023-01-31T04:27:17;99636.63;;;3.21;95.64
70314;BME280;57725;47.526;18.986;2023-01-31T04:29:42;99637.50;;;3.21;95.04
70314;BME280;57725;47.526;18.986;2023-01-31T04:32:08;99644.41;;;3.19;95.63
70314;BME280;57725;47.526;18.986;2023-01-31T04:34:36;99652.13;;;3.21;95.16
70314;BME280;57725;47.526;18.986;2023-01-31T04:37:03;99660.75;;;3.21;95.14
70314;BME280;57725;47.526;18.986;2023-01-31T04:39:31;99663.34;;;3.20;95.09
70314;BME280;57725;47.526;18.986;2023-01-31T04:41:59;99663.31;;;3.21;95.16
70314;BME280;57725;47.526;18.986;2023-01-31T04:44:31;99662.47;;;3.21;95.08
70314;BME280;57725;47.526;18.986;2023-01-31T04:46:56;99659.03;;;3.20;95.14
70314;BME280;57725;47.526;18.986;2023-01-31T04:49:24;99667.63;;;3.21;95.35
70314;BME280;57725;47.526;18.986;2023-01-31T04:51:49;99665.91;;;3.21;95.13
70314;BME280;57725;47.526;18.986;2023-01-31T04:54:14;99672.81;;;3.21;95.41
70314;BME280;57725;47.526;18.986;2023-01-31T04:56:40;99679.69;;;3.22;95.23
70314;BME280;57725;47.526;18.986;2023-01-31T04:59:08;99679.69;;;3.20;95.44
70314;BME280;57725;47.526;18.986;2023-01-31T05:01:34;99690.03;;;3.20;95.27
70314;BME280;57725;47.526;18.986;2023-01-31T05:04:01;99706.41;;;3.21;95.26
70314;BME280;57725;47.526;18.986;2023-01-31T05:06:27;99693.47;;;3.21;95.42
70314;BME280;57725;47.526;18.986;2023-01-31T05:08:56;99687.44;;;3.20;95.16
70314;BME280;57725;47.526;18.986;2023-01-31T05:11:26;99690.03;;;3.20;95.29
70314;BME280;57725;47.526;18.986;2023-01-31T05:13:54;99678.81;;;3.21;95.21
70314;BME280;57725;47.526;18.986;2023-01-31T05:16:19;99655.63;;;3.17;95.22
70314;BME280;57725;47.526;18.986;2023-01-31T05:18:47;99665.06;;;3.19;95.09
70314;BME280;57725;47.526;18.986;2023-01-31T05:21:15;99676.25;;;3.21;95.18
70314;BME280;57725;47.526;18.986;2023-01-31T05:23:40;99664.25;;;3.16;95.11
70314;BME280;57725;47.526;18.986;2023-01-31T05:26:08;99677.97;;;3.21;95.65
70314;BME280;57725;47.526;18.986;2023-01-31T05:28:42;99672.81;;;3.21;95.25
70314;BME280;57725;47.526;18.986;2023-01-31T05:31:07;99671.09;;;3.20;95.05
70314;BME280;57725;47.526;18.986;2023-01-31T05:33:34;99665.94;;;3.20;95.33
70314;BME280;57725;47.526;18.986;2023-01-31T05:36:00;99673.69;;;3.20;95.05
70314;BME280;57725;47.526;18.986;2023-01-31T05:38:25;99665.94;;;3.18;95.33
70314;BME280;57725;47.526;18.986;2023-01-31T05:40:53;99673.69;;;3.20;95.49
70314;BME280;57725;47.526;18.986;2023-01-31T05:43:21;99677.97;;;3.21;95.24
70314;BME280;57725;47.526;18.986;2023-01-31T05:45:47;99674.53;;;3.20;95.27
70314;BME280;57725;47.526;18.986;2023-01-31T05:48:15;99678.84;;;3.20;95.57
70314;BME280;57725;47.526;18.986;2023-01-31T05:50:42;99682.28;;;3.20;95.06
70314;BME280;57725;47.526;18.986;2023-01-31T05:53:10;99682.28;;;3.20;95.21
70314;BME280;57725;47.526;18.986;2023-01-31T05:55:36;99678.00;;;3.19;95.29
70314;BME280;57725;47.526;18.986;2023-01-31T05:58:01;99678.00;;;3.19;95.37
70314;BME280;57725;47.526;18.986;2023-01-31T06:00:27;99679.72;;;3.19;95.39
70314;BME280;57725;47.526;18.986;2023-01-31T06:02:56;99689.19;;;3.20;95.19
70314;BME280;57725;47.526;18.986;2023-01-31T06:05:21;99675.41;;;3.19;95.49
70314;BME280;57725;47.526;18.986;2023-01-31T06:07:49;99678.84;;;3.20;94.77
70314;BME280;57725;47.526;18.986;2023-01-31T06:10:14;99688.31;;;3.19;95.15
70314;BME280;57725;47.526;18.986;2023-01-31T06:12:40;99678.88;;;3.18;95.30
70314;BME280;57725;47.526;18.986;2023-01-31T06:15:08;99691.75;;;3.20;95.02
70314;BME280;57725;47.526;18.986;2023-01-31T06:17:36;99688.31;;;3.19;95.34
70314;BME280;57725;47.526;18.986;2023-01-31T06:20:03;99700.38;;;3.19;95.11
70314;BME280;57725;47.526;18.986;2023-01-31T06:22:31;99700.41;;;3.17;94.92
70314;BME280;57725;47.526;18.986;2023-01-31T06:24:56;99706.41;;;3.19;95.06
70314;BME280;57725;47.526;18.986;2023-01-31T06:27:21;99707.28;;;3.20;95.24
70314;BME280;57725;47.526;18.986;2023-01-31T06:29:47;99704.69;;;3.20;95.27
70314;BME280;57725;47.526;18.986;2023-01-31T06:32:12;99702.09;;;3.20;95.25
70314;BME280;57725;47.526;18.986;2023-01-31T06:34:42;99696.09;;;3.18;95.28
70314;BME280;57725;47.526;18.986;2023-01-31T06:37:11;99709.84;;;3.20;95.35
70314;BME280;57725;47.526;18.986;2023-01-31T06:39:36;99713.31;;;3.19;94.97
70314;BME280;57725;47.526;18.986;2023-01-31T06:42:04;99721.06;;;3.19;95.24
70314;BME280;57725;47.526;18.986;2023-01-31T06:44:30;99713.31;;;3.19;94.96
70314;BME280;57725;47.526;18.986;2023-01-31T06:46:58;99717.59;;;3.20;95.01
70314;BME280;57725;47.526;18.986;2023-01-31T06:49:23;99721.91;;;3.19;95.57
70314;BME280;57725;47.526;18.986;2023-01-31T06:51:51;99733.09;;;3.20;95.66
70314;BME280;57725;47.526;18.986;2023-01-31T06:54:19;99739.13;;;3.19;95.21
70314;BME280;57725;47.526;18.986;2023-01-31T06:56:44;99723.63;;;3.19;94.96
70314;BME280;57725;47.526;18.986;2023-01-31T06:59:09;99733.09;;;3.20;95.26
70314;BME280;57725;47.526;18.986;2023-01-31T07:01:35;99729.69;;;3.18;95.08
70314;BME280;57725;47.526;18.986;2023-01-31T07:04:02;99726.22;;;3.19;95.31
70314;BME280;57725;47.526;18.986;2023-01-31T07:06:28;99731.41;;;3.19;95.43
70314;BME280;57725;47.526;18.986;2023-01-31T07:08:53;99744.31;;;3.19;95.18
70314;BME280;57725;47.526;18.986;2023-01-31T07:11:23;99746.88;;;3.19;95.30
70314;BME280;57725;47.526;18.986;2023-01-31T07:13:51;99753.78;;;3.20;95.16
70314;BME280;57725;47.526;18.986;2023-01-31T07:16:17;99743.44;;;3.18;95.31
70314;BME280;57725;47.526;18.986;2023-01-31T07:18:46;99745.19;;;3.16;95.62
70314;BME280;57725;47.526;18.986;2023-01-31T07:21:11;99739.13;;;3.19;95.17
70314;BME280;57725;47.526;18.986;2023-01-31T07:23:40;99746.06;;;3.17;94.91
70314;BME280;57725;47.526;18.986;2023-01-31T07:26:08;99732.25;;;3.19;95.17
70314;BME280;57725;47.526;18.986;2023-01-31T07:28:36;99745.16;;;3.19;95.21
70314;BME280;57725;47.526;18.986;2023-01-31T07:31:06;99740.84;;;3.20;95.18
70314;BME280;57725;47.526;18.986;2023-01-31T07:33:32;99738.31;;;3.17;95.53
70314;BME280;57725;47.526;18.986;2023-01-31T07:36:00;99746.03;;;3.18;95.29
70314;BME280;57725;47.526;18.986;2023-01-31T07:38:31;99758.09;;;3.19;95.49
70314;BME280;57725;47.526;18.986;2023-01-31T07:41:02;99751.19;;;3.18;95.37
70314;BME280;57725;47.526;18.986;2023-01-31T07:43:27;99762.38;;;3.19;95.46
70314;BME280;57725;47.526;18.986;2023-01-31T07:45:53;99746.06;;;3.17;95.34
70314;BME280;57725;47.526;18.986;2023-01-31T07:48:19;99763.25;;;3.19;95.49
70314;BME280;57725;47.526;18.986;2023-01-31T07:50:59;99756.34;;;3.20;95.45
70314;BME280;57725;47.526;18.986;2023-01-31T07:53:27;99761.53;;;3.20;95.62
70314;BME280;57725;47.526;18.986;2023-01-31T07:55:53;99752.91;;;3.19;95.00
70314;BME280;57725;47.526;18.986;2023-01-31T07:58:18;99764.97;;;3.20;95.45
70314;BME280;57725;47.526;18.986;2023-01-31T08:00:43;99781.34;;;3.19;95.39
70314;BME280;57725;47.526;18.986;2023-01-31T08:03:30;99777.88;;;3.20;95.14
70314;BME280;57725;47.526;18.986;2023-01-31T08:06:05;99780.47;;;3.19;95.49
70314;BME280;57725;47.526;18.986;2023-01-31T08:08:31;99798.53;;;3.20;95.71
70314;BME280;57725;47.526;18.986;2023-01-31T08:10:59;99793.41;;;3.17;95.50
70314;BME280;57725;47.526;18.986;2023-01-31T08:13:24;99813.16;;;3.21;95.36
70314;BME280;57725;47.526;18.986;2023-01-31T08:15:52;99819.22;;;3.20;95.84
70314;BME280;57725;47.526;18.986;2023-01-31T08:18:22;99823.50;;;3.21;95.25
70314;BME280;57725;47.526;18.986;2023-01-31T08:20:50;99814.91;;;3.21;95.13
70314;BME280;57725;47.526;18.986;2023-01-31T08:23:15;99820.94;;;3.20;95.34
70314;BME280;57725;47.526;18.986;2023-01-31T08:25:41;99839.00;;;3.21;95.47
70314;BME280;57725;47.526;18.986;2023-01-31T08:28:07;99857.09;;;3.21;95.18
70314;BME280;57725;47.526;18.986;2023-01-31T08:30:40;99867.44;;;3.21;95.10
70314;BME280;57725;47.526;18.986;2023-01-31T08:33:11;99872.59;;;3.20;95.40
70314;BME280;57725;47.526;18.986;2023-01-31T08:35:39;99883.78;;;3.20;95.29
70314;BME280;57725;47.526;18.986;2023-01-31T08:38:04;99904.44;;;3.22;95.48
70314;BME280;57725;47.526;18.986;2023-01-31T08:40:30;99909.63;;;3.22;95.62
70314;BME280;57725;47.526;18.986;2023-01-31T08:42:57;99923.38;;;3.22;95.63
70314;BME280;57725;47.526;18.986;2023-01-31T08:45:23;99924.25;;;3.23;95.84
70314;BME280;57725;47.526;18.986;2023-01-31T08:47:55;99933.69;;;3.24;95.42
70314;BME280;57725;47.526;18.986;2023-01-31T08:50:21;99941.44;;;3.24;95.85
70314;BME280;57725;47.526;18.986;2023-01-31T08:52:54;99944.88;;;3.24;95.53
70314;BME280;57725;47.526;18.986;2023-01-31T08:55:20;99959.50;;;3.25;95.40
70314;BME280;57725;47.526;18.986;2023-01-31T08:57:46;99952.63;;;3.24;95.42
70314;BME280;57725;47.526;18.986;2023-01-31T09:00:13;99965.53;;;3.24;95.27
70314;BME280;57725;47.526;18.986;2023-01-31T09:02:38;99957.78;;;3.24;95.44
70314;BME280;57725;47.526;18.986;2023-01-31T09:05:07;99962.97;;;3.24;95.38
70314;BME280;57725;47.526;18.986;2023-01-31T09:07:35;99939.69;;;3.24;95.37
70314;BME280;57725;47.526;18.986;2023-01-31T09:10:03;99961.22;;;3.25;95.56
70314;BME280;57725;47.526;18.986;2023-01-31T09:12:29;99963.81;;;3.23;95.37
70314;BME280;57725;47.526;18.986;2023-01-31T09:14:54;99963.81;;;3.25;95.04
70314;BME280;57725;47.526;18.986;2023-01-31T09:17:20;99970.69;;;3.26;95.47
70314;BME280;57725;47.526;18.986;2023-01-31T09:19:45;99968.13;;;3.26;95.50
70314;BME280;57725;47.526;18.986;2023-01-31T09:22:12;99963.81;;;3.25;95.42
70314;BME280;57725;47.526;18.986;2023-01-31T09:24:38;99960.34;;;3.27;95.39
70314;BME280;57725;47.526;18.986;2023-01-31T09:27:07;99968.13;;;3.26;95.68
70314;BME280;57725;47.526;18.986;2023-01-31T09:29:36;99968.13;;;3.24;95.41
70314;BME280;57725;47.526;18.986;2023-01-31T09:32:01;99981.00;;;3.29;95.41
70314;BME280;57725;47.526;18.986;2023-01-31T09:34:27;99984.47;;;3.28;95.32
70314;BME280;57725;47.526;18.986;2023-01-31T09:36:53;99987.91;;;3.27;95.32
70314;BME280;57725;47.526;18.986;2023-01-31T09:39:21;99983.59;;;3.29;95.61
70314;BME280;57725;47.526;18.986;2023-01-31T09:41:58;99994.78;;;3.30;95.56
70314;BME280;57725;47.526;18.986;2023-01-31T09:44:37;99997.38;;;3.30;95.47
70314;BME280;57725;47.526;18.986;2023-01-31T09:49:36;100003.41;;;3.28;95.73
70314;BME280;57725;47.526;18.986;2023-01-31T09:52:12;99993.91;;;3.31;95.31
70314;BME280;57725;47.526;18.986;2023-01-31T09:54:41;100001.66;;;3.31;95.86
70314;BME280;57725;47.526;18.986;2023-01-31T10:00:25;99985.28;;;3.33;95.51
70314;BME280;57725;47.526;18.986;2023-01-31T10:05:48;99990.44;;;3.33;95.37
70314;BME280;57725;47.526;18.986;2023-01-31T10:08:55;99988.72;;;3.34;95.10
70314;BME280;57725;47.526;18.986;2023-01-31T10:11:53;99975.78;;;3.34;95.42
70314;BME280;57725;47.526;18.986;2023-01-31T10:17:05;99974.06;;;3.34;95.70
70314;BME280;57725;47.526;18.986;2023-01-31T10:19:53;99979.19;;;3.36;95.59
70314;BME280;57725;47.526;18.986;2023-01-31T10:22:41;99981.78;;;3.36;95.83
70314;BME280;57725;47.526;18.986;2023-01-31T10:28:21;99992.09;;;3.36;95.58
70314;BME280;57725;47.526;18.986;2023-01-31T10:31:02;99973.16;;;3.37;95.32
70314;BME280;57725;47.526;18.986;2023-01-31T10:36:33;99954.19;;;3.36;95.60
70314;BME280;57725;47.526;18.986;2023-01-31T10:39:24;99959.34;;;3.38;95.77
70314;BME280;57725;47.526;18.986;2023-01-31T10:44:35;99982.59;;;3.39;95.92
70314;BME280;57725;47.526;18.986;2023-01-31T10:47:11;99967.97;;;3.38;95.50
70314;BME280;57725;47.526;18.986;2023-01-31T10:49:39;99989.50;;;3.39;95.47
70314;BME280;57725;47.526;18.986;2023-01-31T10:57:23;99971.41;;;3.40;95.24
70314;BME280;57725;47.526;18.986;2023-01-31T10:59:49;99955.00;;;3.41;95.33
70314;BME280;57725;47.526;18.986;2023-01-31T11:02:27;99967.09;;;3.41;95.17
70314;BME280;57725;47.526;18.986;2023-01-31T11:04:58;99955.00;;;3.41;95.19
70314;BME280;57725;47.526;18.986;2023-01-31T11:07:29;99953.28;;;3.42;95.03
70314;BME280;57725;47.526;18.986;2023-01-31T11:09:55;99940.38;;;3.42;95.51
70314;BME280;57725;47.526;18.986;2023-01-31T11:12:41;99958.44;;;3.43;95.23
70314;BME280;57725;47.526;18.986;2023-01-31T11:15:17;99958.44;;;3.43;95.26
70314;BME280;57725;47.526;18.986;2023-01-31T11:17:46;99951.53;;;3.44;95.73
70314;BME280;57725;47.526;18.986;2023-01-31T11:20:28;99948.97;;;3.44;95.20
70314;BME280;57725;47.526;18.986;2023-01-31T11:22:56;99952.41;;;3.44;95.64
70314;BME280;57725;47.526;18.986;2023-01-31T11:25:27;99936.03;;;3.44;95.54
70314;BME280;57725;47.526;18.986;2023-01-31T11:27:56;99952.38;;;3.46;95.44
70314;BME280;57725;47.526;18.986;2023-01-31T11:30:37;99956.69;;;3.45;95.32
70314;BME280;57725;47.526;18.986;2023-01-31T11:33:03;99935.97;;;3.47;95.52
70314;BME280;57725;47.526;18.986;2023-01-31T11:35:36;99930.88;;;3.44;95.39
70314;BME280;57725;47.526;18.986;2023-01-31T11:40:37;99921.31;;;3.47;95.29
70314;BME280;57725;47.526;18.986;2023-01-31T11:45:44;99923.88;;;3.49;95.47
70314;BME280;57725;47.526;18.986;2023-01-31T11:48:19;99922.19;;;3.48;95.59
70314;BME280;57725;47.526;18.986;2023-01-31T11:51:04;99929.06;;;3.49;95.26
70314;BME280;57725;47.526;18.986;2023-01-31T11:58:38;99924.75;;;3.49;95.38
70314;BME280;57725;47.526;18.986;2023-01-31T12:01:22;99920.44;;;3.50;95.61
70314;BME280;57725;47.526;18.986;2023-01-31T12:04:01;99916.97;;;3.51;95.60
70314;BME280;57725;47.526;18.986;2023-01-31T12:06:39;99919.56;;;3.51;95.73
70314;BME280;57725;47.526;18.986;2023-01-31T12:09:19;99900.59;;;3.52;95.63
70314;BME280;57725;47.526;18.986;2023-01-31T12:14:54;99914.38;;;3.52;95.19
70314;BME280;57725;47.526;18.986;2023-01-31T12:17:28;99914.38;;;3.52;95.51
70314;BME280;57725;47.526;18.986;2023-01-31T12:25:13;99910.91;;;3.53;95.63
70314;BME280;57725;47.526;18.986;2023-01-31T12:30:50;99911.75;;;3.55;95.78
70314;BME280;57725;47.526;18.986;2023-01-31T12:41:34;99919.50;;;3.57;95.45
70314;BME280;57725;47.526;18.986;2023-01-31T13:05:44;99957.34;;;3.61;95.54
70314;BME280;57725;47.526;18.986;2023-01-31T13:11:06;99952.16;;;3.61;95.63
70314;BME280;57725;47.526;18.986;2023-01-31T13:16:19;99964.22;;;3.62;95.87
70314;BME280;57725;47.526;18.986;2023-01-31T13:18:47;99960.78;;;3.61;95.32
70314;BME280;57725;47.526;18.986;2023-01-31T13:21:19;99967.66;;;3.62;95.45
70314;BME280;57725;47.526;18.986;2023-01-31T13:23:51;99957.31;;;3.62;95.76
70314;BME280;57725;47.526;18.986;2023-01-31T13:26:29;99963.34;;;3.64;95.59
70314;BME280;57725;47.526;18.986;2023-01-31T13:29:37;99978.84;;;3.64;96.01
70314;BME280;57725;47.526;18.986;2023-01-31T13:32:24;99976.25;;;3.64;95.94
70314;BME280;57725;47.526;18.986;2023-01-31T13:37:39;99980.56;;;3.66;95.89
70314;BME280;57725;47.526;18.986;2023-01-31T13:42:43;99980.56;;;3.66;95.92
70314;BME280;57725;47.526;18.986;2023-01-31T13:45:34;99989.16;;;3.68;95.32
70314;BME280;57725;47.526;18.986;2023-01-31T13:48:19;99983.97;;;3.68;95.55
70314;BME280;57725;47.526;18.986;2023-01-31T13:50:53;99997.78;;;3.68;95.96
70314;BME280;57725;47.526;18.986;2023-01-31T13:53:29;99996.91;;;3.68;95.39
70314;BME280;57725;47.526;18.986;2023-01-31T13:55:58;99992.59;;;3.68;95.92
70314;BME280;57725;47.526;18.986;2023-01-31T13:58:30;99988.28;;;3.69;95.54
70314;BME280;57725;47.526;18.986;2023-01-31T14:01:08;99990.03;;;3.67;95.90
70314;BME280;57725;47.526;18.986;2023-01-31T14:09:36;99988.22;;;3.70;95.56
70314;BME280;57725;47.526;18.986;2023-01-31T14:20:30;100000.28;;;3.71;95.28
70314;BME280;57725;47.526;18.986;2023-01-31T14:23:28;100008.03;;;3.73;95.85
70314;BME280;57725;47.526;18.986;2023-01-31T14:25:57;100012.34;;;3.72;95.54
70314;BME280;57725;47.526;18.986;2023-01-31T14:28:25;100007.19;;;3.72;95.72
70314;BME280;57725;47.526;18.986;2023-01-31T14:30:54;100010.63;;;3.71;95.62
70314;BME280;57725;47.526;18.986;2023-01-31T14:33:22;100005.44;;;3.74;95.83
70314;BME280;57725;47.526;18.986;2023-01-31T14:57:49;100008.84;;;3.76;96.01
70314;BME280;57725;47.526;18.986;2023-01-31T15:00:22;100003.66;;;3.78;95.71
70314;BME280;57725;47.526;18.986;2023-01-31T15:05:43;100001.09;;;3.78;96.05
70314;BME280;57725;47.526;18.986;2023-01-31T15:13:53;100020.91;;;3.79;95.79
70314;BME280;57725;47.526;18.986;2023-01-31T15:16:25;100020.06;;;3.77;95.63
70314;BME280;57725;47.526;18.986;2023-01-31T15:21:26;100024.34;;;3.79;95.56
70314;BME280;57725;47.526;18.986;2023-01-31T15:23:55;100026.06;;;3.80;95.69
70314;BME280;57725;47.526;18.986;2023-01-31T15:26:27;100028.66;;;3.80;95.78
70314;BME280;57725;47.526;18.986;2023-01-31T15:29:05;100030.38;;;3.78;95.72
70314;BME280;57725;47.526;18.986;2023-01-31T15:31:39;100034.63;;;3.81;95.91
70314;BME280;57725;47.526;18.986;2023-01-31T15:34:15;100030.31;;;3.81;95.63
70314;BME280;57725;47.526;18.986;2023-01-31T15:39:25;100029.44;;;3.82;95.69
70314;BME280;57725;47.526;18.986;2023-01-31T15:41:55;100021.75;;;3.79;95.82
70314;BME280;57725;47.526;18.986;2023-01-31T15:44:23;100025.19;;;3.80;96.00
70314;BME280;57725;47.526;18.986;2023-01-31T15:46:52;100017.38;;;3.83;95.58
70314;BME280;57725;47.526;18.986;2023-01-31T15:49:27;100022.53;;;3.83;95.62
70314;BME280;57725;47.526;18.986;2023-01-31T15:52:12;100023.41;;;3.83;95.76
70314;BME280;57725;47.526;18.986;2023-01-31T15:54:42;100027.72;;;3.83;95.80
70314;BME280;57725;47.526;18.986;2023-01-31T15:57:17;100021.69;;;3.84;95.67
70314;BME280;57725;47.526;18.986;2023-01-31T15:59:45;100018.22;;;3.85;96.08
70314;BME280;57725;47.526;18.986;2023-01-31T16:02:21;100022.53;;;3.84;96.08
70314;BME280;57725;47.526;18.986;2023-01-31T16:04:51;100022.53;;;3.84;95.85
70314;BME280;57725;47.526;18.986;2023-01-31T16:07:20;100019.94;;;3.84;95.79
70314;BME280;57725;47.526;18.986;2023-01-31T16:09:50;100023.38;;;3.85;95.98
70314;BME280;57725;47.526;18.986;2023-01-31T16:12:17;100022.50;;;3.86;95.83
70314;BME280;57725;47.526;18.986;2023-01-31T16:14:48;100025.97;;;3.85;96.10
70314;BME280;57725;47.526;18.986;2023-01-31T16:17:23;100021.66;;;3.85;95.71
70314;BME280;57725;47.526;18.986;2023-01-31T16:19:54;100012.19;;;3.83;95.70
70314;BME280;57725;47.526;18.986;2023-01-31T16:22:31;100024.25;;;3.85;96.18
70314;BME280;57725;47.526;18.986;2023-01-31T16:24:59;100025.13;;;3.83;95.89